Pagrindinis puslapis
METAR-TAF:

METAR-TAF

Oro uostai :

Kivalina, Aliaska, Jungtinės Amerikos Valstijos

platuma: 67-44N, ilguma: 164-33W, Aukštis: 4 m

Dabartinis oras

Ataskaita buvo paskelbta 1 valandą ir 5 minutes, ne 23:53 UTC
Ramus vėjas
Temperatūra -11°C
Drėgmė 43%
Slėgis 1025 hPa
Matomumas: 16.1 km
Giedras dangus

METAR: PAVL 282353Z AUTO 00000KT 10SM CLR M11/M21 A3028 RMK AO2 SLP255 T11061206 11022 21222 51011 TSNO $

Laikas: 16:58 (00:58 UTC)


TAF: trūkstamas

Orai ataskaitas ir orų prognozės (METAR, TAF).

turimą stotys yra geltonos ir raudonos taškus žemėlapyje.

Perkelti pele per norėdami pamatyti stoties vardą.

Tada spustelėkite, norėdami matyti oro stebėjimo ir prognozės.

Norėdami pakeisti žemėlapį: spustelėkite ant žalios mygtukų su juodo kryžiaus žemyn,; žalią mygtuką su brūkšneliu, jei norite nutolinti; arba žalių rodyklių gretimoms žemėlapius.


METAR-TAF: